Terminal Aerodrome Forecast
Issued by NWS Cleveland, OH

Home | Current Version | Previous Version | Graphics & Text | Print | Product List | Glossary Off
Versions: 1 2 3 4 5 6 7 8 9 10 11 12 13 14 15 16 17 18 19 20 21

000
FTUS41 KCLE 162300
TAFMFD
TAF
KMFD 162320Z 1700/1724 27004KT P6SM SKC
     FM170800 18002KT 4SM BR SKC
      TEMPO 1711/1713 2SM BR
     FM171400 25006KT P6SM SKC=

USA.gov is the U.S. government's official web portal to all federal, state and local government web resources and services.